Latest Weather Observations for Pallamana

IDS60901

Issued at 3:41 pm CST Monday 25 September 2017 (issued every 10 minutes, with the page automatically refreshed every 10 minutes)

About weather observations | Map of Adelaide area stations | Latest observations for Adelaide area | Other Formats
Station Details ID: 024584 Name: PALLAMANA AERODROME Lat: -35.06 Lon: 139.23 Height: 45.0 m
Data from the previous 72 hours. | See also: Recent months at Pallamana
Date/Time
CST
Temp
°C
App
Temp
°C
Dew
Point
°C
Rel
Hum
%
Delta-T
°C
Wind Press
QNH
hPa
Press
MSL
hPa
Rain since
9am
mm
Dir  Spd
km/h
Gust
km/h
Spd
kts
Gust
kts
25/03:30pm 17.3 11.7 7.3 52 5.0 S 26 39 14 21 1013.5 1013.5 0.0
25/03:00pm 18.3 12.7 7.2 48 5.6 SSE 26 35 14 19 1013.5 1013.5 0.0
25/02:30pm 18.3 13.6 7.9 50 5.3 SSE 22 33 12 18 1013.5 1013.5 0.0
25/02:00pm 18.0 13.2 7.3 49 5.4 S 22 32 12 17 1013.3 1013.3 0.0
25/01:30pm 18.4 14.5 7.3 48 5.6 S 17 43 9 23 1013.5 1013.5 0.0
25/01:00pm 18.8 14.1 5.0 40 6.7 SW 19 28 10 15 1013.5 1013.5 0.0
25/12:30pm 18.5 13.7 5.6 42 6.3 SSW 20 28 11 15 1013.5 1013.5 0.0
25/12:00pm 17.8 11.9 5.7 45 5.9 SW 26 37 14 20 1013.4 1013.4 0.0
25/11:30am 17.2 12.6 5.4 45 5.7 SW 19 30 10 16 1013.4 1013.4 0.0
25/11:00am 17.4 13.0 6.5 48 5.4 WSW 19 28 10 15 1013.6 1013.6 0.0
25/10:30am 16.9 13.1 7.6 54 4.7 WSW 17 20 9 11 1013.8 1013.8 0.0
25/10:00am 16.6 12.5 6.2 50 5.1 W 17 24 9 13 1013.7 1013.7 0.0
25/09:30am 15.6 11.7 7.1 57 4.2 WSW 17 22 9 12 1013.7 1013.7 0.0
25/09:00am 15.5 10.9 6.7 55 4.3 WSW 20 28 11 15 1013.7 1013.7 0.0
25/08:30am 14.8 11.2 6.8 58 3.9 W 15 22 8 12 1013.5 1013.5 0.0
25/08:11am 13.7 11.4 7.6 66 3.0 WNW 9 17 5 9 1013.2 1013.2 0.0
25/08:00am 13.6 11.1 8.0 69 2.8 N 11 15 6 8 1013.1 1013.1 0.0
25/07:52am 13.3 10.8 8.1 71 2.6 N 11 19 6 10 1013.0 1013.0 0.0
25/07:30am 12.7 10.5 7.8 72 2.4 N 9 11 5 6 1012.7 1012.7 0.0
25/07:00am 10.7 10.2 8.0 83 1.3 CALM 0 6 0 3 1011.8 1011.8 0.0
25/06:30am 8.9 6.8 6.8 87 1.0 SSE 7 9 4 5 1011.0 1011.1 0.0
25/06:00am 10.7 7.5 6.9 77 1.8 WSW 13 19 7 10 1010.7 1010.8 0.0
25/05:30am 11.5 7.6 6.9 73 2.2 W 17 26 9 14 1010.4 1010.5 0.0
25/05:00am 11.6 7.1 7.0 73 2.2 W 20 26 11 14 1010.2 1010.3 0.0
25/04:30am 11.8 7.5 7.0 72 2.3 W 19 24 10 13 1009.7 1009.7 0.0
25/04:00am 11.9 6.6 6.9 71 2.4 W 24 32 13 17 1009.3 1009.3 0.0
25/03:30am 11.8 6.5 7.0 72 2.3 W 24 30 13 16 1009.2 1009.2 0.0
25/03:00am 11.8 7.5 7.2 73 2.2 W 19 26 10 14 1009.2 1009.2 0.0
25/02:30am 12.3 7.8 6.9 69 2.6 W 20 28 11 15 1009.3 1009.3 0.0
25/02:00am 12.0 7.1 6.8 70 2.5 W 22 28 12 15 1009.2 1009.2 0.0
25/01:30am 11.9 6.9 6.4 69 2.6 W 22 32 12 17 1009.3 1009.3 0.0
25/01:00am 10.5 6.4 6.0 74 2.1 W 17 24 9 13 1009.3 1009.3 0.0
25/12:30am 10.1 6.2 5.5 73 2.1 W 15 17 8 9 1009.5 1009.5 0.0
25/12:00am 9.7 5.5 5.5 75 1.9 W 17 19 9 10 1009.5 1009.5 0.0
 
Date/Time
CST
Temp
°C
App
Temp
°C
Dew
Point
°C
Rel
Hum
%
Delta-T
°C
Wind Press
QNH
hPa
Press
MSL
hPa
Rain since
9am
mm
Dir  Spd
km/h
Gust
km/h
Spd
kts
Gust
kts
24/11:30pm 9.0 5.1 5.5 79 1.6 WSW 15 17 8 9 1009.5 1009.5 0.0
24/11:00pm 9.6 5.2 4.9 72 2.1 WSW 17 19 9 10 1009.4 1009.4 0.0
24/10:30pm 11.9 7.1 4.9 62 3.2 W 19 22 10 12 1009.3 1009.3 0.0
24/10:00pm 12.5 8.1 4.9 60 3.5 WNW 17 20 9 11 1009.4 1009.4 0.0
24/09:30pm 13.1 8.5 5.7 61 3.5 W 19 26 10 14 1009.1 1009.1 0.0
24/09:00pm 13.2 8.5 6.1 62 3.4 WNW 20 32 11 17 1009.0 1009.0 0.0
24/08:30pm 13.4 8.9 6.1 61 3.5 WNW 19 28 10 15 1008.6 1008.6 0.0
24/08:00pm 13.6 9.0 5.6 58 3.8 W 19 28 10 15 1008.2 1008.2 0.0
24/07:30pm 13.7 9.3 4.9 55 4.1 W 17 26 9 14 1007.6 1007.6 0.0
24/07:00pm 13.9 9.4 4.4 52 4.4 WNW 17 24 9 13 1007.1 1007.1 0.0
24/06:30pm 14.4 8.6 4.2 50 4.7 WNW 24 43 13 23 1006.8 1006.8 0.0
24/06:00pm 14.9 8.5 3.3 45 5.3 W 26 41 14 22 1006.4 1006.4 0.0
24/05:33pm 15.7 8.6 3.3 43 5.7 W 30 50 16 27 1006.0 1006.0 0.0
24/05:30pm 15.8 8.7 3.4 43 5.7 W 30 44 16 24 1005.8 1005.8 0.0
24/05:00pm 16.5 8.6 2.4 38 6.4 WNW 33 54 18 29 1005.2 1005.2 0.0
24/04:30pm 16.9 8.6 2.1 37 6.7 WNW 35 59 19 32 1004.8 1004.8 0.0
24/04:09pm 17.4 8.7 1.9 35 7.0 W 37 65 20 35 1004.6 1004.6 0.0
24/04:00pm 17.4 9.1 1.9 35 7.0 W 35 52 19 28 1004.5 1004.5 0.0
24/03:30pm 17.6 8.6 2.6 36 6.9 W 39 57 21 31 1004.3 1004.3 0.0
24/03:00pm 17.6 9.2 3.5 39 6.6 WNW 37 65 20 35 1004.0 1004.0 0.0
24/02:30pm 18.5 9.6 3.1 36 7.2 WNW 39 59 21 32 1004.1 1004.1 0.0
24/02:01pm 17.6 7.7 2.9 37 6.8 W 44 63 24 34 1004.2 1004.2 0.0
24/02:00pm 17.9 8.2 2.7 36 7.0 W 43 59 23 32 1004.2 1004.2 0.0
24/01:30pm 17.8 8.3 3.8 39 6.6 WNW 43 67 23 36 1004.2 1004.2 0.0
24/01:00pm 16.4 7.6 5.4 48 5.3 W 41 65 22 35 1004.1 1004.1 0.0
24/12:30pm 18.0 8.5 4.1 39 6.6 WNW 43 69 23 37 1003.8 1003.8 0.0
24/12:00pm 18.1 9.2 5.1 42 6.3 WNW 41 61 22 33 1003.9 1003.9 0.0
24/11:30am 17.4 9.1 6.0 47 5.6 WNW 39 61 21 33 1004.1 1004.1 0.0
24/11:00am 16.7 7.8 5.0 46 5.6 WNW 41 61 22 33 1004.1 1004.1 0.0
24/10:39am 17.4 9.3 5.2 44 5.9 WNW 37 56 20 30 1003.8 1003.8 0.0
24/10:30am 17.6 9.0 4.7 42 6.2 WNW 39 54 21 29 1003.9 1003.9 0.0
24/10:00am 17.5 9.2 4.2 41 6.3 WNW 37 59 20 32 1004.0 1004.0 0.0
24/09:30am 16.9 8.7 5.0 45 5.7 WNW 37 57 20 31 1004.1 1004.1 0.0
24/09:15am 16.6 9.0 5.7 48 5.3 WNW 35 54 19 29 1004.0 1004.0 0.0
24/09:00am 16.2 8.1 5.4 48 5.2 WNW 37 50 20 27 1004.0 1004.0 0.0
24/08:46am 16.1 9.1 5.8 50 5.0 WNW 32 50 17 27 1004.1 1004.1 0.0
24/08:30am 15.2 7.9 5.6 52 4.6 NW 33 50 18 27 1004.0 1004.0 0.0
24/08:00am 15.0 8.5 4.8 50 4.8 WNW 28 43 15 23 1003.8 1003.8 0.0
24/07:30am 14.8 7.8 4.0 48 5.0 WNW 30 46 16 25 1003.7 1003.7 0.0
24/07:00am 13.7 8.9 5.5 57 3.9 WNW 20 33 11 18 1003.4 1003.4 0.0
24/06:30am 13.1 8.2 4.9 57 3.8 WNW 20 30 11 16 1003.2 1003.2 0.0
24/06:00am 12.4 7.6 5.8 64 3.1 NW 20 32 11 17 1002.9 1002.9 0.0
24/05:30am 12.8 7.9 5.3 60 3.5 WNW 20 30 11 16 1002.7 1002.7 0.0
24/05:00am 13.1 8.0 6.0 62 3.4 WNW 22 32 12 17 1002.5 1002.5 0.0
24/04:30am 12.8 8.6 5.8 62 3.3 WNW 17 24 9 13 1002.3 1002.3 0.0
24/04:00am 12.2 8.8 6.1 66 2.9 WNW 13 20 7 11 1002.4 1002.4 0.0
24/03:30am 13.9 7.6 5.5 57 4.0 WNW 28 37 15 20 1002.4 1002.4 0.0
24/03:00am 13.8 9.5 7.1 64 3.3 WNW 19 28 10 15 1002.4 1002.4 0.0
24/02:30am 14.3 9.0 7.0 61 3.6 WNW 24 35 13 19 1002.4 1002.4 0.0
24/02:00am 14.4 8.6 6.4 58 3.9 WNW 26 39 14 21 1002.5 1002.5 0.0
24/01:30am 14.0 8.8 7.3 64 3.3 NW 24 39 13 21 1002.5 1002.5 0.0
24/01:00am 14.0 9.2 7.5 65 3.2 NW 22 35 12 19 1002.9 1002.9 0.0
24/12:30am 14.6 8.9 6.9 60 3.8 NW 26 39 14 21 1003.2 1003.2 0.0
24/12:00am 14.4 9.0 7.8 64 3.3 NW 26 35 14 19 1003.2 1003.2 0.0
 
Date/Time
CST
Temp
°C
App
Temp
°C
Dew
Point
°C
Rel
Hum
%
Delta-T
°C
Wind Press
QNH
hPa
Press
MSL
hPa
Rain since
9am
mm
Dir  Spd
km/h
Gust
km/h
Spd
kts
Gust
kts
23/11:30pm 14.4 9.2 7.3 62 3.5 NW 24 33 13 18 1003.4 1003.4 0.0
23/11:00pm 14.6 8.6 6.9 60 3.8 NW 28 37 15 20 1003.5 1003.5 0.0
23/10:30pm 14.9 7.6 7.0 59 3.9 NW 35 48 19 26 1003.6 1003.6 0.0
23/10:17pm 14.8 8.4 7.1 60 3.8 WNW 30 48 16 26 1003.6 1003.6 0.0
23/10:00pm 14.8 8.8 6.9 59 3.9 WNW 28 39 15 21 1003.6 1003.6 0.0
23/09:30pm 15.0 8.9 6.6 57 4.1 WNW 28 41 15 22 1003.5 1003.5 0.0
23/09:00pm 15.1 9.5 7.2 59 3.9 WNW 26 37 14 20 1003.6 1003.6 0.0
23/08:30pm 15.5 9.5 7.0 57 4.2 WNW 28 44 15 24 1003.6 1003.6 0.0
23/08:00pm 15.5 10.0 7.5 59 4.0 WNW 26 37 14 20 1003.4 1003.4 0.0
23/07:30pm 15.6 11.1 6.9 56 4.3 W 20 32 11 17 1003.0 1003.0 0.0
23/07:00pm 15.9 11.0 7.1 56 4.4 WNW 22 37 12 20 1002.4 1002.4 0.0
23/06:30pm 16.3 10.6 6.6 52 4.8 W 26 43 14 23 1002.1 1002.1 0.0
23/06:00pm 16.9 9.8 5.6 47 5.5 W 32 61 17 33 1001.6 1001.6 0.0
23/05:36pm 17.5 11.2 5.6 45 5.8 WNW 28 46 15 25 1001.2 1001.2 0.0
23/05:30pm 17.6 10.9 5.8 46 5.8 WNW 30 43 16 23 1001.1 1001.1 0.0
23/05:00pm 18.3 10.1 4.9 41 6.5 WNW 37 57 20 31 1000.9 1000.9 0.0
23/04:30pm 19.1 9.9 5.5 41 6.7 WNW 43 65 23 35 1000.2 1000.2 0.0
23/04:00pm 19.5 8.8 4.4 37 7.3 WNW 50 72 27 39 999.8 999.8 0.0
23/03:30pm 20.0 11.1 6.9 42 6.7 WNW 43 61 23 33 999.5 999.5 0.0
23/03:00pm 20.7 10.2 5.7 37 7.5 WNW 50 76 27 41 999.1 999.1 0.0
23/02:30pm 21.3 10.6 4.7 33 8.2 WNW 50 74 27 40 998.9 998.9 0.0
23/02:00pm 21.7 10.7 5.0 33 8.3 WNW 52 76 28 41 998.3 998.3 0.0
23/01:30pm 22.0 10.4 6.6 37 7.9 WNW 57 83 31 45 997.9 997.9 0.0
23/01:05pm 22.0 11.7 8.2 41 7.3 WNW 52 70 28 38 997.7 997.7 0.0
23/01:00pm 23.0 12.8 8.4 39 7.8 WNW 52 69 28 37 997.7 997.7 0.0
23/12:30pm 23.9 13.9 7.7 35 8.6 WNW 50 74 27 40 997.1 997.1 0.0
23/12:00pm 24.4 13.1 5.4 29 9.7 WNW 54 78 29 42 996.7 996.7 0.0
23/11:30am 24.4 15.3 8.5 36 8.6 NW 46 65 25 35 996.3 996.3 0.0
23/11:02am 25.0 16.7 7.6 33 9.2 NW 41 59 22 32 996.0 996.0 0.0
23/11:00am 25.3 17.4 7.8 32 9.3 NW 39 54 21 29 996.0 996.0 0.0
23/10:30am 25.5 17.2 7.8 32 9.5 WNW 41 61 22 33 996.1 996.1 0.0
23/10:08am 24.5 17.6 7.3 33 9.0 NW 33 54 18 29 995.8 995.8 0.0
23/10:00am 24.3 17.0 7.3 33 8.9 WNW 35 50 19 27 995.9 995.9 0.0
23/09:51am 24.4 17.9 6.3 31 9.3 WNW 30 50 16 27 996.0 996.0 0.0
23/09:47am 24.4 18.3 6.6 32 9.2 NW 28 39 15 21 996.0 996.0 0.0
23/09:30am 21.8 19.3 11.0 50 6.0 WNW 15 20 8 11 996.2 996.2 0.0
23/09:00am 19.9 18.5 12.1 60 4.4 WSW 11 15 6 8 996.2 996.2 0.0
23/08:30am 18.8 17.3 12.0 64 3.8 WSW 11 13 6 7 996.0 996.0 0.0
23/08:00am 17.5 16.6 12.5 72 2.8 WSW 9 15 5 8 995.9 995.9 0.0
23/07:30am 15.4 14.6 12.9 85 1.4 WSW 9 13 5 7 995.9 995.9 0.0
23/07:00am 12.4 12.4 11.3 93 0.6 SSE 2 7 1 4 996.0 996.0 0.0
23/06:30am 12.0 11.0 10.9 93 0.6 NNW 7 9 4 5 995.9 995.9 0.0
23/06:00am 12.5 10.8 11.2 92 0.7 WSW 11 15 6 8 996.1 996.1 0.0
23/05:30am 12.5 9.6 11.0 90 0.8 WSW 17 20 9 11 996.5 996.5 0.0
23/05:00am 11.9 10.9 10.2 89 0.9 SW 6 9 3 5 996.4 996.4 0.0
23/04:30am 13.6 11.6 11.4 86 1.2 WSW 13 19 7 10 996.8 996.8 0.0
23/04:00am 14.2 12.3 11.8 85 1.3 WNW 13 19 7 10 997.5 997.5 0.0
23/03:30am 14.2 12.6 11.6 84 1.4 SE 11 17 6 9 997.9 997.9 0.0
23/03:00am 15.9 12.8 11.7 76 2.3 SW 19 30 10 16 999.0 999.0 0.0
23/02:30am 16.7 12.7 10.3 66 3.4 SW 22 30 12 16 999.7 999.7 0.0
23/02:00am 15.7 12.9 8.5 62 3.7 W 13 24 7 13 998.9 998.9 0.0
23/01:30am 14.9 11.7 8.4 65 3.3 NNW 15 20 8 11 998.5 998.5 0.0
23/01:00am 16.4 12.9 8.9 61 3.9 NE 17 24 9 13 999.1 999.1 0.0
23/12:30am 14.2 13.0 10.2 77 2.1 NE 7 17 4 9 1000.8 1000.8 0.0
23/12:00am 18.3 16.7 10.1 59 4.4 WNW 9 13 5 7 1002.3 1002.3 0.0
 
Date/Time
CST
Temp
°C
App
Temp
°C
Dew
Point
°C
Rel
Hum
%
Delta-T
°C
Wind Press
QNH
hPa
Press
MSL
hPa
Rain since
9am
mm
Dir  Spd
km/h
Gust
km/h
Spd
kts
Gust
kts
22/11:30pm 18.2 14.9 9.5 57 4.6 W 17 32 9 17 1002.7 1002.7 0.0
22/11:00pm 16.4 13.8 9.5 63 3.6 NW 13 20 7 11 1001.7 1001.7 0.0
22/10:30pm 17.3 14.7 9.3 59 4.2 NE 13 20 7 11 1001.4 1001.4 0.0
22/10:00pm 19.6 18.2 9.5 52 5.4 NNW 7 11 4 6 1002.4 1002.4 0.0
22/09:30pm 21.1 18.5 7.9 42 6.9 WNW 11 19 6 10 1003.4 1003.4 0.0
22/09:00pm 21.2 15.6 7.3 40 7.2 WSW 26 33 14 18 1002.8 1002.8 0.0
22/08:57pm 20.4 15.8 8.2 45 6.4 WSW 22 33 12 18 1002.9 1002.9 0.0
22/08:30pm 15.2 14.1 10.1 71 2.7 WNW 6 11 3 6 1002.3 1002.3 0.0
22/08:00pm 15.4 14.3 9.9 70 2.9 NW 6 7 3 4 1002.5 1002.5 0.0
22/07:30pm 15.9 16.0 10.0 68 3.1 CALM 0 4 0 2 1002.6 1002.6 0.0
22/07:00pm 19.0 16.3 8.9 52 5.3 NNW 13 13 7 7 1002.6 1002.6 0.0
22/06:30pm 20.8 18.8 8.7 45 6.4 NNW 9 13 5 7 1002.6 1002.6 0.0
22/06:00pm 23.8 22.0 9.5 40 7.8 NNW 9 9 5 5 1002.6 1002.6 0.0
22/05:30pm 26.5 24.9 10.3 36 9.1 N 9 11 5 6 1002.6 1002.6 0.0
22/05:00pm 28.9 26.0 6.7 24 11.8 NNW 11 15 6 8 1002.6 1002.6 0.0
22/04:30pm 29.5 26.1 7.7 25 11.9 NNW 15 20 8 11 1002.9 1002.9 0.0
22/04:00pm 29.8 25.3 6.8 23 12.3 NW 20 28 11 15 1003.0 1003.0 0.0

Latest Capital City Observations: Canberra | Sydney | Melbourne | Brisbane | Adelaide | Perth | Hobart | Darwin

Other Formats:

Comma delimited format used in spreadsheet applications
http://www.bom.gov.au/fwo/IDS60901/IDS60901.95818.axf

JavaScript Object Notation format (JSON) in row-major order
http://www.bom.gov.au/fwo/IDS60901/IDS60901.95818.json